Main page
METAR-TAF:

METAR-TAF

Airports :

Ushuaia – Malvinas Argentinas International Airport

Ushuaia, Argentina

latitude: 54-48S, longitude: 068-19W, elevation: 16 m

Current weather observation

The report was made 45 minutes ago, at 10:00 UTC
Wind 21 kt from the Southwest
Temperature 6°C
Humidity 81%
Pressure 1003 hPa
Visibility 10 km or more
Scattered clouds at a height of 4000 ft
Scattered clouds at a height of 8000 ft

METAR: SAWH 091000Z 23021KT 9999 SCT040 SCT080 06/03 Q1003

Time: 07:45 (10:45 UTC)

Forecast

The report was made 5 hours and 20 minutes ago, at 05:25 UTC
Forecast valid from 09 at 06 UTC to 10 at 06 UTC
Wind 5 kt from the East
Visibility 10 km or more
Scattered clouds at a height of 2000 ft
Becoming
from 09 at 07 UTC to 09 at 09 UTC
Wind 20 kt from the West/Southwest
Temporary
from 09 at 11 UTC to 09 at 18 UTC

TAF: SAWH 090525Z 0906/1006 09005KT 9999 SCT020 TX06/0918Z TN01/0910Z BECMG 0907/0909 25020KT TEMPO 0911/0918 2501G30KT

Weather observations and forecasts of more than 4000 airports (METAR and TAF reports).

The available stations are represented by yellow and red dots on the map.

Hover mouse over dot to see the name of the station.

Then click to see weather observations and forecasts.

To change the map : click on the green buttons with a black cross to zoom in, on the green button with a dash to zoom out, or on the green arrows for adjacent maps.


METAR-TAF: